Terminal Aerodrome Forecast
Issued by NWS Cleveland, OH

Home | Current Version | Previous Version | Graphics & Text | Print | Product List | Glossary On
Versions: 1 2 3 4 5 6 7 8 9 10 11 12 13 14 15 16
000
FTUS41 KCLE 061504 AAA
TAFTOL
TAF AMD
KTOL 061504Z 0615/0712 08005KT P6SM OVC150
     FM061600 07008KT 5SM -RA OVC025
     FM061700 07010KT 2SM -RA BR OVC008
     FM062100 27012KT P6SM OVC025
     FM070500 26012KT P6SM SCT025 BKN200=

USA.gov is the U.S. government's official web portal to all federal, state and local government web resources and services.